createdAt,value
2022-12-01T07:20:25.313Z,8.80
2022-12-01T07:22:55.697Z,8.60
2022-12-01T07:25:24.024Z,8.60
2022-12-01T07:27:53.600Z,8.70
2022-12-01T07:50:22.787Z,8.70
2022-12-01T08:25:09.621Z,9.00
2022-12-01T09:42:14.620Z,9.20
2022-12-01T09:44:47.642Z,9.70
2022-12-01T09:47:19.470Z,9.70
2022-12-01T09:49:55.368Z,9.70
2022-12-01T09:52:26.376Z,9.70
2022-12-01T09:54:56.357Z,9.80
2022-12-01T09:57:31.937Z,9.80
2022-12-01T10:00:06.302Z,9.90
2022-12-01T10:02:38.607Z,9.80
2022-12-01T10:05:13.420Z,9.80
2022-12-01T10:07:47.309Z,9.80
2022-12-01T10:10:19.886Z,9.90
2022-12-01T10:12:49.040Z,9.90
2022-12-01T10:15:32.143Z,9.90
2022-12-01T10:18:22.025Z,10.00
2022-12-01T10:20:55.909Z,10.00
2022-12-01T10:23:42.169Z,10.00
2022-12-01T10:26:15.440Z,10.00
2022-12-01T10:34:01.819Z,10.10
2022-12-01T10:36:31.593Z,10.20
2022-12-01T10:39:00.265Z,10.20
2022-12-01T10:41:32.247Z,10.20
2022-12-01T10:44:05.550Z,10.30
2022-12-01T10:46:42.000Z,10.30
2022-12-01T10:49:12.240Z,10.30
2022-12-01T10:51:55.242Z,10.20
2022-12-01T10:54:25.526Z,10.20
2022-12-01T10:56:58.526Z,10.20
2022-12-01T10:59:36.459Z,10.20
2022-12-01T11:02:15.884Z,10.20
2022-12-01T11:04:47.208Z,10.20
2022-12-01T11:07:21.456Z,10.30
2022-12-01T11:10:06.134Z,10.30
2022-12-01T11:12:34.885Z,10.30
2022-12-01T11:15:03.495Z,10.30
2022-12-01T11:17:38.118Z,10.30
2022-12-01T11:20:32.454Z,10.30
2022-12-01T11:23:24.310Z,10.30
2022-12-01T11:26:16.118Z,10.30
2022-12-01T11:28:53.781Z,10.30
2022-12-01T11:31:26.813Z,10.30
2022-12-01T11:33:57.575Z,10.30
2022-12-01T11:36:32.866Z,10.30
2022-12-01T11:39:02.729Z,10.30
2022-12-01T11:41:35.245Z,10.30
2022-12-01T11:44:12.717Z,10.30
2022-12-01T11:47:07.766Z,10.40
2022-12-01T11:49:47.271Z,10.40
2022-12-01T11:52:23.895Z,10.30
2022-12-01T11:54:57.930Z,10.40
2022-12-01T11:57:34.294Z,10.40
2022-12-01T12:00:03.630Z,10.30
2022-12-01T12:02:40.647Z,10.40
2022-12-01T12:05:45.513Z,10.40
2022-12-01T12:08:27.441Z,10.40
2022-12-01T12:11:05.237Z,10.40
2022-12-01T12:13:57.860Z,10.30
2022-12-01T12:16:34.118Z,10.30
2022-12-01T12:19:33.613Z,10.30
2022-12-01T12:22:15.450Z,10.30
2022-12-01T12:24:54.486Z,10.30
2022-12-01T12:27:33.115Z,10.40
2022-12-01T12:30:12.626Z,10.40
2022-12-01T12:33:01.444Z,10.40
2022-12-01T12:35:39.394Z,10.40
2022-12-01T12:38:15.377Z,10.30
2022-12-01T12:40:50.812Z,10.40
2022-12-01T12:43:26.874Z,10.40
2022-12-01T12:46:07.414Z,10.30
2022-12-01T12:51:52.042Z,10.30
2022-12-01T12:54:27.767Z,10.30
2022-12-01T12:57:01.705Z,10.30
2022-12-01T12:59:35.365Z,10.30
2022-12-01T13:02:10.834Z,10.30
2022-12-01T13:04:43.877Z,10.30
2022-12-01T13:07:24.116Z,10.20
2022-12-01T13:10:00.863Z,10.20
2022-12-01T13:12:31.845Z,10.20
2022-12-01T13:15:06.134Z,10.20
2022-12-01T13:17:38.124Z,10.20
2022-12-01T13:20:07.446Z,10.20
2022-12-01T13:22:37.260Z,10.20
2022-12-01T13:25:07.757Z,10.20
2022-12-01T13:27:38.512Z,10.20
2022-12-01T13:30:17.541Z,10.30
2022-12-01T13:32:48.293Z,10.30
2022-12-01T13:35:27.559Z,10.30
2022-12-01T13:38:24.816Z,10.30
2022-12-01T13:41:13.133Z,10.30
2022-12-01T13:43:53.108Z,10.30
2022-12-01T13:46:24.470Z,10.30
2022-12-01T13:48:54.838Z,10.30
2022-12-01T13:51:23.379Z,10.30
2022-12-01T13:53:58.858Z,10.30
2022-12-01T13:56:46.720Z,10.40
2022-12-01T13:59:41.217Z,10.30
2022-12-01T14:02:19.286Z,10.30
2022-12-01T14:04:47.964Z,10.30
2022-12-01T14:07:36.662Z,10.30
2022-12-01T14:10:27.799Z,10.20
2022-12-01T14:13:00.498Z,10.20
2022-12-01T14:15:40.406Z,10.20
2022-12-01T14:18:35.511Z,10.20
2022-12-01T14:21:06.832Z,10.20
2022-12-01T14:23:36.468Z,10.10
2022-12-01T14:26:14.399Z,10.10
2022-12-01T14:29:27.824Z,10.10
2022-12-01T14:32:26.148Z,10.10
2022-12-01T14:35:02.503Z,10.00
2022-12-01T14:37:40.513Z,10.00
2022-12-01T14:40:16.467Z,10.00
2022-12-01T14:43:06.304Z,9.90
2022-12-01T14:45:42.469Z,9.90
2022-12-01T14:48:15.207Z,9.80
2022-12-01T14:50:50.047Z,9.80
2022-12-01T14:53:24.986Z,9.80
2022-12-01T14:55:57.522Z,9.80
2022-12-01T14:58:28.932Z,9.80
2022-12-01T15:01:06.025Z,9.70
2022-12-01T15:03:39.553Z,9.70
2022-12-01T15:06:08.600Z,9.80
2022-12-01T15:08:41.915Z,9.80
2022-12-01T15:11:31.883Z,9.80
2022-12-01T15:14:00.201Z,9.80
2022-12-01T15:16:44.193Z,9.80
2022-12-01T15:19:31.582Z,9.80
2022-12-01T15:22:03.679Z,9.80
2022-12-01T15:24:50.468Z,9.80
2022-12-01T15:27:27.260Z,9.90
2022-12-01T15:29:56.559Z,9.80
2022-12-01T15:32:27.144Z,9.80
2022-12-01T15:34:56.949Z,9.80
2022-12-01T15:37:27.927Z,9.80
2022-12-01T15:41:06.192Z,9.70
2022-12-01T15:43:19.200Z,9.70
2022-12-01T15:45:55.411Z,9.60
2022-12-01T15:48:31.394Z,9.60
2022-12-01T15:51:15.934Z,9.60
2022-12-01T15:53:50.295Z,9.50
2022-12-01T16:14:01.262Z,9.50
2022-12-01T16:16:37.248Z,9.20
2022-12-01T16:19:25.780Z,9.20
2022-12-01T16:21:58.271Z,9.20
2022-12-01T16:24:30.570Z,9.20
2022-12-01T16:27:02.446Z,9.30
2022-12-01T16:29:32.750Z,9.30
2022-12-01T16:32:21.066Z,9.30
2022-12-01T16:34:52.762Z,9.20
2022-12-01T16:37:22.612Z,9.20
2022-12-01T16:39:51.368Z,9.30
2022-12-01T16:42:21.701Z,9.20
2022-12-01T16:44:50.870Z,9.20
2022-12-01T16:47:21.360Z,9.20
2022-12-01T16:49:51.008Z,9.20
2022-12-01T16:52:43.716Z,9.30
2022-12-01T16:55:25.713Z,9.30
2022-12-01T16:57:53.899Z,9.30
2022-12-01T17:00:22.641Z,9.30
2022-12-01T17:02:50.915Z,9.30
2022-12-01T17:05:20.639Z,9.40
2022-12-01T17:07:49.037Z,9.40
2022-12-01T17:10:17.769Z,9.40
2022-12-01T17:12:45.960Z,9.40
2022-12-01T17:15:14.205Z,9.40
2022-12-01T17:17:42.409Z,9.50
2022-12-01T17:20:11.351Z,9.50
2022-12-01T17:22:41.104Z,9.40
2022-12-01T17:25:10.653Z,9.50
2022-12-01T17:27:39.638Z,9.40
2022-12-01T17:30:09.066Z,9.40
2022-12-01T17:32:37.308Z,9.40
2022-12-01T17:35:06.062Z,9.40
2022-12-01T17:37:36.884Z,9.40
2022-12-01T17:40:08.802Z,9.40
2022-12-01T17:42:37.182Z,9.50
2022-12-01T17:45:06.123Z,9.50
2022-12-01T17:47:34.318Z,9.50
2022-12-01T17:50:02.561Z,9.40
2022-12-01T17:52:30.813Z,9.40
2022-12-01T17:54:59.169Z,9.40
2022-12-01T17:57:28.752Z,9.40
2022-12-01T17:59:56.901Z,9.40
2022-12-01T18:02:25.341Z,9.40
2022-12-01T18:04:53.941Z,9.50
2022-12-01T18:07:22.470Z,9.50
2022-12-01T18:09:50.724Z,9.50
2022-12-01T18:12:18.903Z,9.50
2022-12-01T18:14:48.879Z,9.50
2022-12-01T18:17:17.376Z,9.50
2022-12-01T18:19:45.589Z,9.50
2022-12-01T18:22:13.946Z,9.40
2022-12-01T18:24:42.139Z,9.40
2022-12-01T18:27:10.275Z,9.30
2022-12-01T18:29:38.565Z,9.30
2022-12-01T18:32:08.130Z,9.30
2022-12-01T18:34:36.326Z,9.20
2022-12-01T18:37:05.905Z,9.20
2022-12-01T18:39:34.552Z,9.20
2022-12-01T18:42:02.751Z,9.20
2022-12-01T18:44:31.072Z,9.20
2022-12-01T18:46:59.341Z,9.20
2022-12-01T18:49:28.995Z,9.20
2022-12-01T18:51:57.499Z,9.10
2022-12-01T18:54:25.683Z,9.10
2022-12-01T18:56:55.094Z,9.20
2022-12-01T18:59:23.273Z,9.10
2022-12-01T19:01:52.381Z,9.10
2022-12-01T19:04:20.749Z,9.10
2022-12-01T19:06:50.281Z,9.10
2022-12-01T19:09:18.562Z,9.10
2022-12-01T19:11:46.728Z,9.10
2022-12-01T19:14:16.806Z,9.10
2022-12-01T19:16:45.802Z,9.10
2022-12-01T19:19:14.021Z,9.10
2022-12-01T19:21:42.913Z,9.10
2022-12-01T19:24:12.633Z,9.00
2022-12-01T19:26:40.847Z,9.00
2022-12-01T19:29:09.479Z,9.00
2022-12-01T19:31:37.852Z,9.00
2022-12-01T19:34:06.144Z,9.00
2022-12-01T19:36:34.415Z,9.00
2022-12-01T19:39:06.060Z,9.00
2022-12-01T19:41:37.123Z,9.00
2022-12-01T19:44:05.397Z,9.00
2022-12-01T19:46:33.594Z,9.00
2022-12-01T19:49:02.856Z,9.00
2022-12-01T19:51:35.065Z,9.00
2022-12-01T19:54:03.624Z,9.00
2022-12-01T19:56:32.311Z,9.00
2022-12-01T19:59:01.910Z,9.00
2022-12-01T20:01:30.210Z,9.00
2022-12-01T20:03:58.377Z,8.90
2022-12-01T20:06:28.535Z,8.90
2022-12-01T20:08:57.983Z,8.90
2022-12-01T20:11:26.765Z,8.90
2022-12-01T20:13:55.036Z,8.90
2022-12-01T20:16:27.054Z,8.90
2022-12-01T21:06:35.196Z,8.80
2022-12-01T21:09:04.248Z,8.40
2022-12-01T21:11:53.128Z,8.30
2022-12-01T21:14:28.962Z,8.30
2022-12-01T21:17:03.553Z,8.30
2022-12-01T21:19:43.074Z,8.20
2022-12-01T21:24:43.958Z,8.10
2022-12-01T21:27:15.355Z,8.10
2022-12-01T21:29:46.014Z,8.10
2022-12-01T21:32:16.752Z,8.10
2022-12-01T21:34:48.223Z,8.10
2022-12-01T21:37:22.148Z,8.00
2022-12-01T21:39:51.127Z,8.00
2022-12-01T21:42:21.942Z,8.00
2022-12-01T21:44:50.748Z,8.00
2022-12-01T21:47:21.757Z,8.00
2022-12-01T21:49:54.057Z,7.90
2022-12-01T21:52:25.021Z,7.90
2022-12-01T21:54:53.484Z,7.90
2022-12-01T21:57:43.373Z,7.90
2022-12-01T22:00:29.163Z,7.90
2022-12-01T22:03:15.823Z,7.80
2022-12-01T22:06:06.931Z,8.00
2022-12-01T22:08:37.664Z,7.80
2022-12-01T22:11:10.868Z,7.80
2022-12-01T22:13:44.359Z,7.70
2022-12-01T22:16:20.354Z,7.80
2022-12-01T22:18:51.792Z,7.70
2022-12-01T22:21:32.725Z,7.70
2022-12-01T22:24:15.549Z,7.70
2022-12-01T22:26:48.058Z,7.70
2022-12-01T22:29:28.445Z,7.70
2022-12-01T22:32:27.896Z,7.60
2022-12-01T22:35:00.039Z,7.60
2022-12-01T22:37:38.542Z,7.50
2022-12-01T22:40:30.995Z,7.50
2022-12-01T22:43:01.287Z,7.50
2022-12-01T22:45:29.461Z,7.50
2022-12-01T22:48:01.876Z,7.50
2022-12-01T22:50:31.715Z,7.50
2022-12-01T22:53:13.372Z,7.50
2022-12-01T22:55:41.701Z,7.40
2022-12-01T22:58:22.468Z,7.50
2022-12-01T23:00:50.651Z,7.40
2022-12-01T23:03:19.564Z,7.40
2022-12-01T23:05:49.055Z,7.40
2022-12-01T23:08:23.249Z,7.40
2022-12-01T23:10:52.041Z,7.40
2022-12-01T23:13:23.078Z,7.30
2022-12-01T23:15:53.610Z,7.30
2022-12-01T23:18:24.737Z,7.30
2022-12-01T23:20:54.956Z,7.30
2022-12-01T23:23:29.586Z,7.30
2022-12-01T23:25:58.586Z,7.30
2022-12-01T23:28:26.758Z,7.30
2022-12-01T23:30:57.928Z,7.30
2022-12-01T23:33:27.359Z,7.30
2022-12-01T23:35:58.809Z,7.30
2022-12-01T23:38:32.724Z,7.30
2022-12-01T23:41:05.500Z,7.30
2022-12-01T23:43:36.471Z,7.30
2022-12-01T23:46:09.747Z,7.30
2022-12-01T23:48:42.054Z,7.30
2022-12-01T23:51:17.194Z,7.20
2022-12-01T23:53:47.989Z,7.20
2022-12-01T23:56:19.897Z,7.20
2022-12-01T23:58:48.227Z,7.20
